createdAt,value
2023-02-22T00:01:35.125Z,32.80
2023-02-22T00:04:04.323Z,33.70
2023-02-22T00:06:32.477Z,32.05
2023-02-22T00:09:02.392Z,30.02
2023-02-22T00:11:32.435Z,30.92
2023-02-22T00:14:00.390Z,29.98
2023-02-22T00:16:28.574Z,31.48
2023-02-22T00:18:56.644Z,31.45
2023-02-22T00:21:24.636Z,30.05
2023-02-22T00:23:54.649Z,30.58
2023-02-22T00:26:23.745Z,32.38
2023-02-22T00:28:55.071Z,29.67
2023-02-22T00:31:23.526Z,32.17
2023-02-22T00:33:51.497Z,31.10
2023-02-22T00:36:19.564Z,30.30
2023-02-22T00:38:47.592Z,30.92
2023-02-22T00:41:15.895Z,29.55
2023-02-22T00:43:44.107Z,27.20
2023-02-22T00:46:14.925Z,29.42
2023-02-22T00:48:42.954Z,29.20
2023-02-22T00:51:10.886Z,29.98
2023-02-22T00:53:38.940Z,29.00
2023-02-22T00:56:07.794Z,29.73
2023-02-22T00:58:35.824Z,29.80
2023-02-22T01:01:03.911Z,29.83
2023-02-22T01:03:33.339Z,29.85
2023-02-22T01:06:01.400Z,31.25
2023-02-22T01:08:31.135Z,29.13
2023-02-22T01:10:59.151Z,29.63
2023-02-22T01:13:27.225Z,31.70
2023-02-22T01:15:56.728Z,30.25
2023-02-22T01:18:25.950Z,29.08
2023-02-22T01:20:55.398Z,29.48
2023-02-22T01:23:23.368Z,29.70
2023-02-22T01:25:51.328Z,30.13
2023-02-22T01:28:19.396Z,29.40
2023-02-22T01:30:47.510Z,31.13
2023-02-22T01:33:16.648Z,30.80
2023-02-22T01:35:46.372Z,30.55
2023-02-22T01:38:15.871Z,30.67
2023-02-22T01:40:48.296Z,29.42
2023-02-22T01:43:20.583Z,31.13
2023-02-22T01:45:56.004Z,29.40
2023-02-22T01:48:30.698Z,28.30
2023-02-22T01:51:00.983Z,29.60
2023-02-22T01:53:34.191Z,29.65
2023-02-22T01:56:03.048Z,29.38
2023-02-22T01:58:34.624Z,29.80
2023-02-22T02:03:36.588Z,28.90
2023-02-22T02:06:07.323Z,29.83
2023-02-22T02:08:49.822Z,30.02
2023-02-22T02:11:20.774Z,29.35
2023-02-22T02:13:50.872Z,28.90
2023-02-22T02:16:21.560Z,31.00
2023-02-22T02:18:50.026Z,30.83
2023-02-22T02:21:43.864Z,31.27
2023-02-22T02:24:59.687Z,31.00
2023-02-22T02:27:40.453Z,31.13
2023-02-22T02:30:38.225Z,33.28
2023-02-22T02:33:12.100Z,30.50
2023-02-22T02:35:50.112Z,30.70
2023-02-22T02:38:31.395Z,29.93
2023-02-22T02:41:08.095Z,31.38
2023-02-22T02:43:41.851Z,30.83
2023-02-22T02:46:15.343Z,30.70
2023-02-22T02:48:50.241Z,29.75
2023-02-22T02:51:19.868Z,30.63
2023-02-22T02:53:51.253Z,31.17
2023-02-22T02:56:19.628Z,31.38
2023-02-22T02:58:50.162Z,32.50
2023-02-22T03:01:28.822Z,29.70
2023-02-22T03:04:20.339Z,32.42
2023-02-22T03:07:07.301Z,32.10
2023-02-22T03:09:45.095Z,31.08
2023-02-22T03:12:25.436Z,32.07
2023-02-22T03:15:06.647Z,31.20
2023-02-22T03:17:48.591Z,31.98
2023-02-22T03:20:31.597Z,32.25
2023-02-22T03:23:05.897Z,31.00
2023-02-22T03:25:39.576Z,33.20
2023-02-22T03:28:11.655Z,32.95
2023-02-22T03:30:42.770Z,33.17
2023-02-22T03:33:16.159Z,33.38
2023-02-22T03:35:49.249Z,32.80
2023-02-22T03:38:21.455Z,33.78
2023-02-22T03:40:54.499Z,33.83
2023-02-22T03:43:26.749Z,36.00
2023-02-22T03:45:55.630Z,34.60
2023-02-22T03:48:29.743Z,35.53
2023-02-22T03:51:01.005Z,36.13
2023-02-22T03:53:30.565Z,35.20
2023-02-22T03:56:00.213Z,36.75
2023-02-22T03:58:33.089Z,34.83
2023-02-22T04:01:01.163Z,35.00
2023-02-22T04:03:29.206Z,35.17
2023-02-22T04:05:58.538Z,35.50
2023-02-22T04:08:26.471Z,35.72
2023-02-22T04:10:54.566Z,36.25
2023-02-22T04:13:22.602Z,37.85
2023-02-22T04:15:50.615Z,38.30
2023-02-22T04:18:18.595Z,37.55
2023-02-22T04:20:46.738Z,38.47
2023-02-22T04:23:17.003Z,36.92
2023-02-22T04:25:45.239Z,37.92
2023-02-22T04:28:13.204Z,38.55
2023-02-22T04:30:41.206Z,38.75
2023-02-22T04:33:09.196Z,38.15
2023-02-22T04:35:37.175Z,36.05
2023-02-22T04:38:05.277Z,38.95
2023-02-22T04:40:34.656Z,39.20
2023-02-22T04:43:02.690Z,36.17
2023-02-22T04:45:30.698Z,36.95
2023-02-22T04:47:58.759Z,37.42
2023-02-22T04:50:26.771Z,35.03
2023-02-22T04:52:54.807Z,35.20
2023-02-22T04:55:23.243Z,34.90
2023-02-22T04:57:52.520Z,33.60
2023-02-22T05:00:21.766Z,32.90
2023-02-22T05:02:50.294Z,33.30
2023-02-22T05:05:21.346Z,32.28
2023-02-22T05:07:49.636Z,33.72
2023-02-22T05:10:18.221Z,32.63
2023-02-22T05:12:46.464Z,32.90
2023-02-22T05:15:19.673Z,33.30
2023-02-22T05:17:48.151Z,33.03
2023-02-22T05:20:22.833Z,32.92
2023-02-22T05:22:52.032Z,33.60
2023-02-22T05:25:21.439Z,31.95
2023-02-22T05:27:52.910Z,33.50
2023-02-22T05:30:24.733Z,32.10
2023-02-22T05:32:52.759Z,33.20
2023-02-22T05:35:21.333Z,32.50
2023-02-22T05:37:50.783Z,31.17
2023-02-22T05:40:21.787Z,30.65
2023-02-22T05:42:50.437Z,31.48
2023-02-22T05:45:20.260Z,31.23
2023-02-22T05:47:49.751Z,30.15
2023-02-22T05:50:19.745Z,30.52
2023-02-22T05:52:48.698Z,29.80
2023-02-22T05:55:18.532Z,29.10
2023-02-22T05:57:46.546Z,29.80
2023-02-22T06:00:19.121Z,29.60
2023-02-22T06:02:47.285Z,28.10
2023-02-22T06:05:16.741Z,27.10
2023-02-22T06:07:44.720Z,27.45
2023-02-22T06:10:13.449Z,29.05
2023-02-22T06:12:41.697Z,27.00
2023-02-22T06:15:10.083Z,27.30
2023-02-22T06:17:39.574Z,27.10
2023-02-22T06:20:08.513Z,26.67
2023-02-22T06:22:37.896Z,26.63
2023-02-22T06:25:06.620Z,27.08
2023-02-22T06:27:35.495Z,26.65
2023-02-22T06:30:03.590Z,26.85
2023-02-22T06:32:32.442Z,26.23
2023-02-22T06:35:00.443Z,25.95
2023-02-22T06:37:28.446Z,26.00
2023-02-22T06:40:00.757Z,25.92
2023-02-22T06:42:32.817Z,25.85
2023-02-22T06:45:00.953Z,25.43
2023-02-22T06:47:29.005Z,24.55
2023-02-22T06:49:57.535Z,25.55
2023-02-22T06:52:26.059Z,25.25
2023-02-22T06:54:54.320Z,25.13
2023-02-22T06:57:23.752Z,25.60
2023-02-22T06:59:51.780Z,27.00
2023-02-22T07:02:19.842Z,27.47
2023-02-22T07:04:47.833Z,25.40
2023-02-22T07:07:15.838Z,25.55
2023-02-22T07:09:47.471Z,25.80
2023-02-22T07:12:15.474Z,26.27
2023-02-22T07:14:44.727Z,26.77
2023-02-22T07:17:12.771Z,26.48
2023-02-22T07:19:40.861Z,27.45
2023-02-22T07:22:08.977Z,27.80
2023-02-22T07:24:37.006Z,25.90
2023-02-22T07:27:05.124Z,25.42
2023-02-22T07:29:35.963Z,27.30
2023-02-22T07:32:05.556Z,25.60
2023-02-22T07:34:33.516Z,25.67
2023-02-22T07:37:01.438Z,26.93
2023-02-22T07:39:29.516Z,24.83
2023-02-22T07:41:57.467Z,24.57
2023-02-22T07:44:25.432Z,25.43
2023-02-22T07:46:53.359Z,24.37
2023-02-22T07:49:22.855Z,25.13
2023-02-22T07:51:50.824Z,24.58
2023-02-22T07:54:18.799Z,25.17
2023-02-22T07:56:47.540Z,25.63
2023-02-22T07:59:15.742Z,24.15
2023-02-22T08:01:43.693Z,25.50
2023-02-22T08:04:11.693Z,25.90
2023-02-22T08:06:41.068Z,25.15
2023-02-22T08:09:09.055Z,26.13
2023-02-22T08:11:37.153Z,27.10
2023-02-22T08:14:05.406Z,26.30
2023-02-22T08:16:33.497Z,26.13
2023-02-22T08:19:01.442Z,26.25
2023-02-22T08:21:30.342Z,27.10
2023-02-22T08:23:59.640Z,26.83
2023-02-22T08:26:27.609Z,26.98
2023-02-22T08:28:55.782Z,27.83
2023-02-22T08:31:23.853Z,26.02
2023-02-22T08:33:51.882Z,27.08
2023-02-22T08:36:19.957Z,26.10
2023-02-22T08:38:47.939Z,27.70
2023-02-22T08:41:17.504Z,27.60
2023-02-22T08:43:45.568Z,26.75
2023-02-22T08:46:13.569Z,27.20
2023-02-22T08:48:51.309Z,27.15
2023-02-22T08:51:19.531Z,26.35
2023-02-22T08:53:47.563Z,28.23
2023-02-22T08:56:16.955Z,26.38
2023-02-22T08:58:44.888Z,27.90
2023-02-22T09:01:17.283Z,28.80
2023-02-22T09:03:50.020Z,30.75
2023-02-22T09:06:18.333Z,28.20
2023-02-22T09:08:46.312Z,28.98
2023-02-22T09:11:14.477Z,29.23
2023-02-22T09:13:44.126Z,28.83
2023-02-22T09:16:12.388Z,27.90
2023-02-22T09:18:44.259Z,26.48
2023-02-22T09:21:13.566Z,27.75
2023-02-22T09:23:42.512Z,26.40
2023-02-22T09:26:11.410Z,25.70
2023-02-22T09:28:39.487Z,26.53
2023-02-22T09:31:09.376Z,24.70
2023-02-22T09:33:37.392Z,27.37
2023-02-22T09:36:06.878Z,25.70
2023-02-22T09:38:34.911Z,27.50
2023-02-22T09:41:15.034Z,27.33
2023-02-22T09:43:49.359Z,27.20
2023-02-22T09:46:30.468Z,26.13
2023-02-22T09:49:05.249Z,27.77
2023-02-22T09:51:40.083Z,25.80
2023-02-22T09:54:14.876Z,28.52
2023-02-22T09:56:46.209Z,29.67
2023-02-22T09:59:18.791Z,30.00
2023-02-22T10:01:51.289Z,30.95
2023-02-22T10:04:26.068Z,31.67
2023-02-22T10:07:05.982Z,30.70
2023-02-22T10:09:38.317Z,31.70
2023-02-22T10:12:12.262Z,29.93
2023-02-22T10:15:08.529Z,27.67
2023-02-22T10:17:45.777Z,29.88
2023-02-22T10:20:24.056Z,29.25
2023-02-22T10:23:05.728Z,27.58
2023-02-22T10:25:38.780Z,27.05
2023-02-22T10:28:13.293Z,26.60
2023-02-22T10:30:44.881Z,25.53
2023-02-22T10:33:18.638Z,25.80
2023-02-22T10:35:47.382Z,25.70
2023-02-22T10:38:20.423Z,26.10
2023-02-22T10:40:51.738Z,25.67
2023-02-22T10:43:20.017Z,24.38
2023-02-22T10:45:48.087Z,25.00
2023-02-22T10:48:21.118Z,24.20
2023-02-22T10:50:50.553Z,25.27
2023-02-22T10:53:18.541Z,26.13
2023-02-22T10:56:09.726Z,26.00
2023-02-22T10:58:43.400Z,25.77
2023-02-22T11:01:27.620Z,24.45
2023-02-22T11:04:04.145Z,25.75
2023-02-22T11:06:33.447Z,24.83
2023-02-22T11:09:13.527Z,24.80
2023-02-22T11:11:43.660Z,25.40
2023-02-22T11:14:12.396Z,24.25
2023-02-22T11:16:43.448Z,24.70
2023-02-22T11:19:23.962Z,22.95
2023-02-22T11:21:54.268Z,23.98
2023-02-22T11:24:30.308Z,24.10
2023-02-22T11:27:03.491Z,23.88
2023-02-22T11:29:33.762Z,23.77
2023-02-22T11:32:07.055Z,24.13
2023-02-22T11:34:39.346Z,24.10
2023-02-22T11:37:30.596Z,24.45
2023-02-22T11:40:13.790Z,24.88
2023-02-22T11:42:41.801Z,24.40
2023-02-22T11:45:13.767Z,24.50
2023-02-22T11:47:53.676Z,24.10
2023-02-22T11:50:32.524Z,24.10
2023-02-22T11:53:13.610Z,23.83
2023-02-22T11:55:51.805Z,23.45
2023-02-22T11:58:30.983Z,23.73
2023-02-22T12:01:07.228Z,23.38
2023-02-22T12:04:22.418Z,23.98
2023-02-22T12:06:58.037Z,24.35
2023-02-22T12:09:36.133Z,23.17
2023-02-22T12:12:16.558Z,24.83
2023-02-22T12:14:55.347Z,23.90
2023-02-22T12:17:32.171Z,22.88
2023-02-22T12:20:07.588Z,23.42
2023-02-22T12:22:39.094Z,23.50
2023-02-22T12:25:17.388Z,23.40
2023-02-22T12:27:49.257Z,22.07
2023-02-22T12:30:23.665Z,22.15
2023-02-22T12:32:54.594Z,22.60
2023-02-22T12:35:24.883Z,23.50
2023-02-22T12:38:04.106Z,22.80
2023-02-22T12:40:38.202Z,23.35
2023-02-22T12:43:16.716Z,21.90
2023-02-22T12:45:49.553Z,22.63
2023-02-22T12:48:31.273Z,23.33
2023-02-22T12:51:17.126Z,22.23
2023-02-22T12:53:56.581Z,23.17
2023-02-22T12:56:31.325Z,22.65
2023-02-22T12:59:08.369Z,22.00
2023-02-22T13:01:40.344Z,22.27
2023-02-22T13:04:20.053Z,23.13
2023-02-22T13:07:00.669Z,22.13
2023-02-22T13:10:12.030Z,21.35
2023-02-22T13:12:50.705Z,22.05
2023-02-22T13:15:24.687Z,21.88
2023-02-22T13:18:03.250Z,23.90
2023-02-22T13:20:37.661Z,23.70
2023-02-22T13:23:12.276Z,22.00
2023-02-22T13:25:49.953Z,21.58
2023-02-22T13:28:25.694Z,22.83
2023-02-22T13:31:09.023Z,22.40
2023-02-22T13:33:52.526Z,22.13
2023-02-22T13:36:35.284Z,22.05
2023-02-22T13:39:28.401Z,21.95
2023-02-22T13:42:20.059Z,22.67
2023-02-22T13:45:17.412Z,22.60
2023-02-22T13:48:13.950Z,21.13
2023-02-22T13:51:03.063Z,24.37
2023-02-22T13:53:39.286Z,31.17
2023-02-22T13:56:07.597Z,36.63
2023-02-22T13:58:49.947Z,44.20
2023-02-22T14:01:43.644Z,46.72
2023-02-22T14:04:46.564Z,43.72
2023-02-22T14:07:57.861Z,40.40
2023-02-22T14:10:48.925Z,40.15
2023-02-22T14:13:18.690Z,41.22
2023-02-22T14:16:22.839Z,42.53
2023-02-22T14:19:01.212Z,36.15
2023-02-22T14:21:29.794Z,39.65
2023-02-22T14:24:07.113Z,39.57
2023-02-22T14:26:36.810Z,37.67
2023-02-22T14:29:17.199Z,33.80
2023-02-22T14:32:06.609Z,30.52
2023-02-22T14:34:53.985Z,30.13
2023-02-22T14:37:25.579Z,27.27
2023-02-22T14:39:58.256Z,27.60
2023-02-22T14:42:31.781Z,27.67
2023-02-22T14:45:08.667Z,27.75
2023-02-22T14:47:43.829Z,28.65
2023-02-22T14:50:23.192Z,26.73
2023-02-22T14:53:01.528Z,26.38
2023-02-22T14:55:32.508Z,26.00
2023-02-22T14:58:06.217Z,26.52
2023-02-22T15:00:41.979Z,26.80
2023-02-22T15:03:29.254Z,26.50
2023-02-22T15:06:00.206Z,26.98
2023-02-22T15:08:28.632Z,24.92
2023-02-22T15:10:56.633Z,25.95
2023-02-22T15:13:27.443Z,25.55
2023-02-22T15:16:00.597Z,26.15
2023-02-22T15:18:35.235Z,25.48
2023-02-22T15:21:09.283Z,25.57
2023-02-22T15:23:43.727Z,23.92
2023-02-22T15:26:19.172Z,24.55
2023-02-22T15:28:49.014Z,25.25
2023-02-22T15:31:25.816Z,25.10
2023-02-22T15:33:56.147Z,24.75
2023-02-22T15:36:30.945Z,24.60
2023-02-22T15:38:59.020Z,25.25
2023-02-22T15:41:32.122Z,23.90
2023-02-22T15:44:05.599Z,24.67
2023-02-22T15:46:39.768Z,27.05
2023-02-22T15:49:21.239Z,24.88
2023-02-22T15:51:53.491Z,26.77
2023-02-22T15:54:27.590Z,26.95
2023-02-22T15:56:56.739Z,28.42
2023-02-22T15:59:30.438Z,28.25
2023-02-22T16:02:00.288Z,28.47
2023-02-22T16:04:32.118Z,34.33
2023-02-22T16:07:08.090Z,33.10
2023-02-22T16:09:36.325Z,37.20
2023-02-22T16:12:24.124Z,41.05
2023-02-22T16:14:52.750Z,36.75
2023-02-22T16:17:31.922Z,40.30
2023-02-22T16:20:02.104Z,40.20
2023-02-22T16:22:34.660Z,41.35
2023-02-22T16:25:27.249Z,40.47
2023-02-22T16:27:58.000Z,42.50
2023-02-22T16:30:29.750Z,42.67
2023-02-22T16:32:58.862Z,42.22
2023-02-22T16:35:29.680Z,44.03
2023-02-22T16:38:00.485Z,44.53
2023-02-22T16:40:32.406Z,45.60
2023-02-22T16:43:05.443Z,43.37
2023-02-22T16:45:34.347Z,45.37
2023-02-22T16:48:04.962Z,46.47
2023-02-22T16:50:34.319Z,45.85
2023-02-22T16:53:02.451Z,46.53
2023-02-22T16:55:30.562Z,48.33
2023-02-22T16:58:01.093Z,49.08
2023-02-22T17:00:32.153Z,48.60
2023-02-22T17:03:03.861Z,48.92
2023-02-22T17:05:36.127Z,46.60
2023-02-22T17:08:05.858Z,46.80
2023-02-22T17:10:34.311Z,48.80
2023-02-22T17:13:16.419Z,46.83
2023-02-22T17:15:49.831Z,45.17
2023-02-22T17:18:22.571Z,48.22
2023-02-22T17:20:51.666Z,45.70
2023-02-22T17:23:21.162Z,46.70
2023-02-22T17:25:53.541Z,47.40
2023-02-22T17:28:21.916Z,47.03
2023-02-22T17:30:51.490Z,48.72
2023-02-22T17:33:26.586Z,48.93
2023-02-22T17:35:55.966Z,47.40
2023-02-22T17:38:28.777Z,48.50
2023-02-22T17:40:57.370Z,48.40
2023-02-22T17:43:27.835Z,50.58
2023-02-22T17:45:56.199Z,48.97
2023-02-22T17:48:24.748Z,48.63
2023-02-22T17:50:53.935Z,47.03
2023-02-22T17:53:22.726Z,46.80
2023-02-22T17:55:52.324Z,48.60
2023-02-22T17:58:20.367Z,48.15
2023-02-22T18:00:51.344Z,47.00
2023-02-22T18:03:21.740Z,48.47
2023-02-22T18:05:54.952Z,47.13
2023-02-22T18:08:24.435Z,48.13
2023-02-22T18:10:56.542Z,46.17
2023-02-22T18:13:26.287Z,45.58
2023-02-22T18:15:54.531Z,47.90
2023-02-22T18:18:23.123Z,49.10
2023-02-22T18:20:55.661Z,47.35
2023-02-22T18:23:27.742Z,47.97
2023-02-22T18:26:10.143Z,47.22
2023-02-22T18:28:39.218Z,46.88
2023-02-22T18:31:09.019Z,46.13
2023-02-22T18:33:37.354Z,45.85
2023-02-22T18:36:05.905Z,45.53
2023-02-22T18:38:33.922Z,44.47
2023-02-22T18:41:05.314Z,46.97
2023-02-22T18:43:35.538Z,44.88
2023-02-22T18:46:08.075Z,44.47
2023-02-22T18:48:36.538Z,45.03
2023-02-22T18:51:06.777Z,41.92
2023-02-22T18:53:36.806Z,43.30
2023-02-22T18:56:08.429Z,42.30
2023-02-22T18:58:38.881Z,42.13
2023-02-22T19:01:08.211Z,41.80
2023-02-22T19:03:38.418Z,43.53
2023-02-22T19:06:08.963Z,42.80
2023-02-22T19:08:39.507Z,43.63
2023-02-22T19:11:10.868Z,42.75
2023-02-22T19:13:39.642Z,41.47
2023-02-22T19:16:08.415Z,39.77
2023-02-22T19:18:36.480Z,40.10
2023-02-22T19:21:08.589Z,39.15
2023-02-22T19:23:38.126Z,40.03
2023-02-22T19:26:09.429Z,39.67
2023-02-22T19:28:37.448Z,40.83
2023-02-22T19:31:14.070Z,40.53
2023-02-22T19:33:42.523Z,41.33
2023-02-22T19:36:11.444Z,40.63
2023-02-22T19:38:39.912Z,40.72
2023-02-22T19:41:12.469Z,41.17
2023-02-22T19:43:40.588Z,40.15
2023-02-22T19:46:09.006Z,40.08
2023-02-22T19:48:37.025Z,41.40
2023-02-22T19:51:07.221Z,42.58
2023-02-22T19:53:35.428Z,42.30
2023-02-22T19:56:09.342Z,42.10
2023-02-22T19:58:39.434Z,42.67
2023-02-22T20:01:14.699Z,42.43
2023-02-22T20:03:43.692Z,40.65
2023-02-22T20:06:16.156Z,41.75
2023-02-22T20:08:44.126Z,41.75
2023-02-22T20:11:13.239Z,41.00
2023-02-22T20:13:43.712Z,42.60
2023-02-22T20:16:15.579Z,44.00
2023-02-22T20:18:44.303Z,42.83
2023-02-22T20:21:14.713Z,41.63
2023-02-22T20:23:44.386Z,42.17
2023-02-22T20:26:17.066Z,42.40
2023-02-22T20:28:47.033Z,42.05
2023-02-22T20:31:16.680Z,42.93
2023-02-22T20:33:46.676Z,42.22
2023-02-22T20:36:16.457Z,43.90
2023-02-22T20:38:44.983Z,42.22
2023-02-22T20:41:15.707Z,42.30
2023-02-22T20:43:43.813Z,43.60
2023-02-22T20:46:13.246Z,42.28
2023-02-22T20:48:41.320Z,43.00
2023-02-22T20:51:10.546Z,43.47
2023-02-22T20:53:41.759Z,43.78
2023-02-22T20:56:13.354Z,41.97
2023-02-22T20:58:41.534Z,41.55
2023-02-22T21:01:12.123Z,41.80
2023-02-22T21:03:42.890Z,40.33
2023-02-22T21:06:11.817Z,43.80
2023-02-22T21:08:40.143Z,42.40
2023-02-22T21:11:11.925Z,42.65
2023-02-22T21:13:39.964Z,41.58
2023-02-22T21:16:10.307Z,43.00
2023-02-22T21:18:38.600Z,42.08
2023-02-22T21:21:10.402Z,41.33
2023-02-22T21:23:38.710Z,39.42
2023-02-22T21:26:07.158Z,39.03
2023-02-22T21:28:50.608Z,42.15
2023-02-22T21:31:21.315Z,40.40
2023-02-22T21:33:51.141Z,39.63
2023-02-22T21:36:25.160Z,39.80
2023-02-22T21:38:55.233Z,41.03
2023-02-22T21:41:27.688Z,38.60
2023-02-22T21:43:57.462Z,39.22
2023-02-22T21:46:25.749Z,39.03
2023-02-22T21:48:53.996Z,38.90
2023-02-22T21:51:25.579Z,39.47
2023-02-22T21:53:55.501Z,39.70
2023-02-22T21:56:27.468Z,40.67
2023-02-22T21:58:59.701Z,40.50
2023-02-22T22:01:28.478Z,38.17
2023-02-22T22:03:59.643Z,41.45
2023-02-22T22:06:30.195Z,39.30
2023-02-22T22:09:00.830Z,37.95
2023-02-22T22:11:30.642Z,39.00
2023-02-22T22:13:59.806Z,38.47
2023-02-22T22:16:30.272Z,38.37
2023-02-22T22:18:58.973Z,39.70
2023-02-22T22:21:28.358Z,38.47
2023-02-22T22:23:57.339Z,39.47
2023-02-22T22:26:27.414Z,38.00
2023-02-22T22:28:58.542Z,37.97
2023-02-22T22:31:28.056Z,37.00
2023-02-22T22:33:57.415Z,38.10
2023-02-22T22:36:27.362Z,36.97
2023-02-22T22:38:58.322Z,37.23
2023-02-22T22:41:28.195Z,35.83
2023-02-22T22:43:56.949Z,35.72
2023-02-22T22:46:25.034Z,34.97
2023-02-22T22:48:53.077Z,35.63
2023-02-22T22:51:22.407Z,34.58
2023-02-22T22:53:51.971Z,34.80
2023-02-22T22:56:26.392Z,35.95
2023-02-22T22:58:55.973Z,37.00
2023-02-22T23:01:27.310Z,35.70
2023-02-22T23:04:00.586Z,35.42
2023-02-22T23:06:33.012Z,35.95
2023-02-22T23:09:10.543Z,35.27
2023-02-22T23:11:44.565Z,35.15
2023-02-22T23:14:14.147Z,37.35
2023-02-22T23:16:43.008Z,36.20
2023-02-22T23:19:11.139Z,37.15
2023-02-22T23:21:39.491Z,37.17
2023-02-22T23:24:07.852Z,37.10
2023-02-22T23:26:36.200Z,38.45
2023-02-22T23:29:05.624Z,36.65
2023-02-22T23:31:33.655Z,36.90
2023-02-22T23:34:10.940Z,35.57
2023-02-22T23:36:39.317Z,36.38
2023-02-22T23:39:07.737Z,37.38
2023-02-22T23:41:36.489Z,35.97
2023-02-22T23:44:08.319Z,37.22
2023-02-22T23:46:37.077Z,37.88
2023-02-22T23:49:05.612Z,37.43
2023-02-22T23:51:39.375Z,35.00
2023-02-22T23:54:10.010Z,39.08
2023-02-22T23:56:40.303Z,35.78
2023-02-22T23:59:12.523Z,37.70
